Time;durP1;ratioP1;P1;durP2;ratioP2;P2;SDS_P1;SDS_P2;PMS_P1;PMS_P2;Temp;Humidity;BMP_temperature;BMP_pressure;BME280_temperature;BME280_humidity;BME280_pressure;Samples;Min_cycle;Max_cycle;Signal;HPM_P1;HPM_P2
2022/04/20 00:00:56;;;;;;;18.60;12.35;;;;;;;4.37;100.00;99944.47;4900690;29;20048;-73
2022/04/20 00:03:26;;;;;;;17.85;12.40;;;;;;;4.41;100.00;99959.28;4900685;29;20131;-72
2022/04/20 00:05:55;;;;;;;16.77;12.35;;;;;;;4.32;100.00;99959.63;4883653;29;20147;-72
2022/04/20 00:08:23;;;;;;;18.65;12.80;;;;;;;4.41;100.00;99947.84;4900097;29;20372;-73
2022/04/20 00:10:51;;;;;;;23.75;15.35;;;;;;;4.34;100.00;99959.56;4900714;29;20044;-72
2022/04/20 00:13:19;;;;;;;19.25;14.15;;;;;;;4.37;100.00;99962.97;4900397;29;20052;-73
2022/04/20 00:15:47;;;;;;;20.13;14.10;;;;;;;4.11;100.00;99944.63;4900508;29;20052;-72
2022/04/20 00:18:16;;;;;;;20.95;14.38;;;;;;;4.30;100.00;99964.13;4900236;29;20044;-73
2022/04/20 00:20:45;;;;;;;21.67;15.32;;;;;;;4.24;100.00;99966.97;4883544;29;20052;-73
2022/04/20 00:23:13;;;;;;;19.90;13.77;;;;;;;4.24;100.00;99965.19;4883391;29;20090;-73
2022/04/20 00:25:41;;;;;;;19.48;13.80;;;;;;;4.22;100.00;99964.41;4882968;29;20052;-73
2022/04/20 00:28:10;;;;;;;19.17;14.15;;;;;;;4.11;100.00;99963.09;4900100;29;20479;-73
2022/04/20 00:30:38;;;;;;;21.05;13.93;;;;;;;4.09;100.00;99963.19;4900335;29;20585;-75
2022/04/20 00:33:06;;;;;;;20.95;14.93;;;;;;;3.97;100.00;99967.16;4900400;29;20044;-73
2022/04/20 00:35:34;;;;;;;21.70;15.02;;;;;;;3.89;100.00;99971.84;4899676;29;20443;-75
2022/04/20 00:38:06;;;;;;;22.20;14.98;;;;;;;3.81;100.00;99965.13;4883024;29;20080;-72
2022/04/20 00:40:34;;;;;;;21.42;14.68;;;;;;;3.73;100.00;99975.97;4899623;29;20140;-72
2022/04/20 00:43:03;;;;;;;20.00;14.60;;;;;;;3.78;100.00;99963.47;4900106;29;20064;-72
2022/04/20 00:45:32;;;;;;;20.25;14.93;;;;;;;3.94;100.00;99976.94;4882585;29;20052;-72
2022/04/20 00:48:03;;;;;;;21.17;14.15;;;;;;;3.89;100.00;99974.47;4899863;29;20063;-73
2022/04/20 00:50:32;;;;;;;19.80;14.27;;;;;;;3.89;100.00;99971.84;4899361;29;20122;-72
2022/04/20 00:53:00;;;;;;;20.10;14.38;;;;;;;3.82;100.00;99975.63;4899557;29;20455;-74
2022/04/20 00:55:31;;;;;;;20.63;14.75;;;;;;;3.92;100.00;99971.72;4882685;29;20080;-73
2022/04/20 00:57:59;;;;;;;19.48;14.02;;;;;;;3.92;100.00;99971.72;4882849;29;20056;-73
2022/04/20 01:00:27;;;;;;;22.85;14.43;;;;;;;3.80;100.00;99960.78;4899185;29;20048;-72
2022/04/20 01:02:56;;;;;;;20.23;15.00;;;;;;;3.75;100.00;99968.84;4882612;29;20048;-74
2022/04/20 01:05:24;;;;;;;22.98;14.68;;;;;;;3.61;100.00;99971.13;4899351;29;20072;-73
2022/04/20 01:07:52;;;;;;;20.58;15.50;;;;;;;3.67;100.00;99970.94;4882490;29;20059;-73
2022/04/20 01:10:21;;;;;;;20.00;14.02;;;;;;;3.89;100.00;99973.63;4899117;29;20049;-78
2022/04/20 01:12:50;;;;;;;20.40;14.23;;;;;;;3.86;100.00;99971.97;4899429;29;20504;-73
2022/04/20 01:15:19;;;;;;;19.17;13.73;;;;;;;3.80;100.00;99979.25;4899330;29;20048;-74
2022/04/20 01:17:47;;;;;;;22.52;15.23;;;;;;;3.68;100.00;99981.41;4898531;29;20037;-73
2022/04/20 01:20:17;;;;;;;21.52;14.88;;;;;;;3.69;100.00;99990.19;4882170;29;20048;-72
2022/04/20 01:22:47;;;;;;;20.50;14.85;;;;;;;3.56;100.00;99984.47;4899058;29;20045;-72
2022/04/20 01:25:15;;;;;;;22.02;15.82;;;;;;;3.40;100.00;99976.25;4882280;29;20091;-71
2022/04/20 01:27:44;;;;;;;20.50;15.07;;;;;;;3.49;100.00;99979.50;4898839;29;20048;-72
2022/04/20 01:30:12;;;;;;;20.48;14.25;;;;;;;3.59;100.00;99984.38;4899210;29;20463;-74
2022/04/20 01:32:40;;;;;;;21.83;14.63;;;;;;;3.63;100.00;99982.47;4882097;29;20083;-73
2022/04/20 01:35:09;;;;;;;20.67;15.02;;;;;;;3.51;100.00;99975.03;4898844;29;20120;-72
2022/04/20 01:37:38;;;;;;;22.48;16.08;;;;;;;3.49;100.00;99983.00;4898543;29;20057;-73
2022/04/20 01:40:08;;;;;;;19.50;14.27;;;;;;;3.56;100.00;99980.97;4882017;29;20052;-72
2022/04/20 01:42:37;;;;;;;22.35;16.15;;;;;;;3.41;100.00;99983.25;4898279;29;20541;-75
2022/04/20 01:45:06;;;;;;;20.77;15.63;;;;;;;3.29;100.00;99986.31;4898898;29;20045;-74
2022/04/20 01:47:34;;;;;;;20.67;15.13;;;;;;;3.33;100.00;99984.44;4898330;29;20112;-74
2022/04/20 01:50:02;;;;;;;21.92;15.73;;;;;;;3.35;100.00;99982.59;4898828;29;20474;-75
2022/04/20 01:52:31;;;;;;;23.00;15.77;;;;;;;3.30;100.00;99988.03;4898465;29;20076;-75
2022/04/20 01:55:00;;;;;;;21.10;15.07;;;;;;;3.32;100.00;99991.47;4898482;29;20040;-75
2022/04/20 01:57:29;;;;;;;21.88;14.48;;;;;;;3.40;100.00;99983.31;4898329;29;20141;-75
2022/04/20 01:59:58;;;;;;;19.95;14.65;;;;;;;3.29;100.00;99988.09;4898716;29;20128;-74
2022/04/20 02:02:38;;;;;;;24.17;15.32;;;;;;;3.19;100.00;99987.56;4898175;29;20048;-74
2022/04/20 02:05:09;;;;;;;22.83;15.40;;;;;;;3.23;100.00;99985.66;4898580;29;20075;-74
2022/04/20 02:07:41;;;;;;;22.42;14.95;;;;;;;2.98;100.00;99982.97;4898529;29;20502;-74
2022/04/20 02:10:09;;;;;;;21.98;15.55;;;;;;;2.86;100.00;99985.13;4898394;29;20060;-74
2022/04/20 02:12:39;;;;;;;27.00;15.90;;;;;;;3.04;100.00;99988.91;4898430;29;20191;-75
2022/04/20 02:15:08;;;;;;;26.15;16.30;;;;;;;3.04;100.00;99980.16;4898631;29;20041;-74
2022/04/20 02:17:37;;;;;;;22.20;15.35;;;;;;;2.98;100.00;99980.34;4898144;29;20052;-73
2022/04/20 02:20:06;;;;;;;22.35;15.55;;;;;;;2.94;100.00;99979.59;4898254;29;20049;-73
2022/04/20 02:22:34;;;;;;;25.17;16.05;;;;;;;2.97;100.00;99970.72;4898197;29;20047;-73
2022/04/20 02:25:03;;;;;;;22.85;15.98;;;;;;;2.99;100.00;99974.16;4898216;29;20402;-73
2022/04/20 02:27:31;;;;;;;23.17;15.50;;;;;;;2.96;100.00;99969.00;4881252;29;20426;-74
2022/04/20 02:30:01;;;;;;;23.00;15.35;;;;;;;2.81;100.00;99963.34;4901806;29;20474;-73
2022/04/20 02:32:29;;;;;;;26.95;16.63;;;;;;;2.74;100.00;99974.13;4902365;29;20136;-73
2022/04/20 02:34:58;;;;;;;25.92;16.25;;;;;;;2.87;100.00;99973.66;4885457;29;20426;-76
2022/04/20 02:37:26;;;;;;;25.90;16.60;;;;;;;2.75;100.00;99979.34;4885120;29;20879;-78
2022/04/20 02:39:54;;;;;;;22.73;15.27;;;;;;;2.93;100.00;99983.16;4902181;29;20041;-72
2022/04/20 02:42:22;;;;;;;23.55;15.55;;;;;;;2.95;100.00;99983.09;4902010;29;20056;-72
2022/04/20 02:44:51;;;;;;;24.02;15.68;;;;;;;2.85;100.00;99972.88;4901928;29;20128;-73
2022/04/20 02:47:20;;;;;;;22.42;15.85;;;;;;;2.91;100.00;99974.44;4902252;29;20037;-72
2022/04/20 02:49:49;;;;;;;24.98;15.65;;;;;;;2.90;100.00;99979.78;4884654;29;20056;-73
2022/04/20 02:52:17;;;;;;;21.02;15.07;;;;;;;2.88;100.00;99980.66;4902190;29;20075;-73
2022/04/20 02:54:45;;;;;;;23.20;15.57;;;;;;;2.80;100.00;99972.16;4901726;29;20076;-74
2022/04/20 02:57:13;;;;;;;22.20;15.63;;;;;;;2.79;100.00;99978.31;4901773;29;20055;-73
2022/04/20 02:59:42;;;;;;;24.20;15.43;;;;;;;2.80;100.00;99979.22;4901347;29;20049;-72
2022/04/20 03:02:10;;;;;;;24.15;15.82;;;;;;;2.80;100.00;99982.72;4901823;29;20088;-73
2022/04/20 03:04:40;;;;;;;23.70;16.30;;;;;;;2.62;100.00;99988.56;4901541;29;20546;-72
2022/04/20 03:07:09;;;;;;;23.52;16.35;;;;;;;2.59;100.00;99986.88;4901501;29;20045;-72
2022/04/20 03:09:37;;;;;;;25.33;15.82;;;;;;;2.60;100.00;99985.09;4884557;29;20052;-73
2022/04/20 03:12:06;;;;;;;27.67;16.65;;;;;;;2.63;100.00;99987.66;4901196;29;20048;-73
2022/04/20 03:14:35;;;;;;;26.65;17.08;;;;;;;2.61;100.00;99981.56;4884337;29;20099;-72
2022/04/20 03:17:03;;;;;;;22.50;14.93;;;;;;;2.69;100.00;99986.56;4901491;29;20052;-73
2022/04/20 03:19:31;;;;;;;23.08;15.95;;;;;;;2.68;100.00;99992.75;4901432;29;20073;-72
2022/04/20 03:22:04;;;;;;;24.40;15.90;;;;;;;2.69;100.00;99994.47;4901843;29;20044;-71
2022/04/20 03:24:32;;;;;;;21.85;14.05;;;;;;;2.70;100.00;99989.19;4901177;29;20100;-73
2022/04/20 03:27:00;;;;;;;22.38;15.35;;;;;;;2.77;100.00;99997.72;4901248;29;20072;-73
2022/04/20 03:29:28;;;;;;;21.90;15.07;;;;;;;2.70;100.00;99997.09;4900911;29;20135;-73
2022/04/20 03:31:57;;;;;;;27.23;16.23;;;;;;;2.86;100.00;100000.94;4901025;29;20055;-73
2022/04/20 03:34:25;;;;;;;22.20;14.48;;;;;;;2.85;100.00;99996.56;4901206;29;20100;-72
2022/04/20 03:36:53;;;;;;;27.20;14.27;;;;;;;2.87;100.00;100001.78;4901088;29;20387;-73
2022/04/20 03:39:23;;;;;;;19.35;13.45;;;;;;;2.85;100.00;100000.97;4901136;29;20071;-73
2022/04/20 03:41:51;;;;;;;22.55;15.65;;;;;;;2.63;100.00;99999.97;4900003;29;20131;-72
2022/04/20 03:44:19;;;;;;;20.17;14.75;;;;;;;2.67;100.00;100002.44;4884185;29;20052;-75
2022/04/20 03:46:48;;;;;;;20.45;13.93;;;;;;;2.68;100.00;99993.63;4900775;29;20051;-74
2022/04/20 03:49:16;;;;;;;20.05;14.05;;;;;;;2.65;100.00;99995.50;4900787;29;20060;-75
2022/04/20 03:51:45;;;;;;;26.63;14.50;;;;;;;2.77;100.00;100000.38;4900632;29;20562;-74
2022/04/20 03:54:13;;;;;;;20.77;14.07;;;;;;;2.76;100.00;100003.91;4883738;29;20048;-75
2022/04/20 03:59:29;;;;;;;20.25;13.85;;;;;;;2.80;100.00;100003.78;4900848;29;20103;-73
2022/04/20 04:01:57;;;;;;;19.00;13.90;;;;;;;2.72;100.00;100000.53;4900625;29;20064;-72
2022/04/20 04:04:25;;;;;;;19.02;13.93;;;;;;;2.77;100.00;100001.22;4900524;29;20114;-73
2022/04/20 04:06:54;;;;;;;21.58;12.95;;;;;;;2.88;100.00;100007.00;4900440;29;20068;-72
2022/04/20 04:09:22;;;;;;;21.13;12.90;;;;;;;2.93;100.00;100006.00;4900614;29;20398;-73
2022/04/20 04:11:51;;;;;;;19.42;13.23;;;;;;;2.88;100.00;100001.72;4900257;29;20054;-72
2022/04/20 04:14:20;;;;;;;19.25;13.68;;;;;;;3.00;100.00;100002.25;4900380;29;20056;-71
2022/04/20 04:16:48;;;;;;;17.98;13.70;;;;;;;2.99;100.00;100009.31;4883256;29;20053;-73
2022/04/20 04:19:16;;;;;;;22.35;14.23;;;;;;;3.13;100.00;100008.84;4900012;29;20116;-73
2022/04/20 04:21:46;;;;;;;25.17;15.45;;;;;;;3.20;100.00;100018.28;4883049;29;20063;-72
2022/04/20 04:26:58;;;;;;;18.00;12.50;;;;;;;4.06;100.00;100024.00;4882236;29;20483;-71
2022/04/20 04:29:27;;;;;;;18.25;12.30;;;;;;;4.53;100.00;100016.88;4899971;29;20083;-72
2022/04/20 04:31:55;;;;;;;18.65;12.15;;;;;;;4.72;100.00;100021.44;4899574;29;20058;-74
2022/04/20 04:34:24;;;;;;;15.70;11.40;;;;;;;4.93;100.00;100019.75;4900079;29;20052;-75
2022/04/20 04:36:58;;;;;;;15.50;12.02;;;;;;;4.70;100.00;100025.94;4900068;29;20053;-73
2022/04/20 04:39:28;;;;;;;15.52;11.65;;;;;;;4.52;100.00;100028.38;4899648;29;20092;-72
2022/04/20 04:42:00;;;;;;;18.10;12.10;;;;;;;4.26;100.00;100029.41;4899404;29;20402;-73
2022/04/20 04:44:32;;;;;;;17.83;11.87;;;;;;;4.29;100.00;100029.28;4899881;29;20055;-73
2022/04/20 04:49:46;;;;;;;19.52;12.38;;;;;;;4.35;100.00;100033.47;4882300;29;20087;-73
2022/04/20 04:52:14;;;;;;;18.70;12.57;;;;;;;4.30;100.00;100030.13;4898300;29;20067;-72
2022/04/20 04:54:43;;;;;;;19.55;12.27;;;;;;;4.26;100.00;100028.53;4899067;29;20048;-72
2022/04/20 04:57:13;;;;;;;17.00;13.15;;;;;;;4.55;100.00;100033.56;4899699;29;20045;-71
2022/04/20 04:59:42;;;;;;;16.25;12.07;;;;;;;4.47;100.00;100033.00;4899184;29;20041;-71
2022/04/20 05:02:11;;;;;;;16.67;11.63;;;;;;;4.50;100.00;100038.16;4882761;29;20052;-73
2022/04/20 05:04:41;;;;;;;14.60;11.23;;;;;;;4.70;100.00;100034.72;4882450;29;20055;-72
2022/04/20 05:07:09;;;;;;;16.15;11.48;;;;;;;4.90;100.00;100033.94;4899337;29;20052;-73
2022/04/20 05:09:37;;;;;;;18.00;11.45;;;;;;;4.94;100.00;100038.19;4899075;29;20055;-77
2022/04/20 05:12:07;;;;;;;17.27;11.70;;;;;;;4.91;100.00;100034.78;4882859;29;20060;-72
2022/04/20 05:14:39;;;;;;;18.15;12.63;;;;;;;5.01;100.00;100033.50;4899235;29;20041;-72
2022/04/20 05:17:07;;;;;;;14.95;11.10;;;;;;;5.20;100.00;100028.31;4899034;29;20454;-73
2022/04/20 05:19:35;;;;;;;15.82;10.90;;;;;;;5.33;100.00;100032.19;4882156;29;20108;-72
2022/04/20 05:22:04;;;;;;;14.75;10.90;;;;;;;5.20;100.00;100037.09;4898607;29;20096;-73
2022/04/20 05:24:35;;;;;;;17.95;11.57;;;;;;;5.30;100.00;100040.22;4898750;29;20052;-72
2022/04/20 05:27:04;;;;;;;17.95;12.60;;;;;;;5.54;100.00;100033.91;4898784;29;20108;-73
2022/04/20 05:29:33;;;;;;;17.80;12.55;;;;;;;5.65;100.00;100042.22;4882033;29;20052;-74
2022/04/20 05:32:02;;;;;;;14.93;11.10;;;;;;;5.88;100.00;100038.56;4898602;29;20048;-72
2022/04/20 05:34:33;;;;;;;19.23;13.05;;;;;;;5.97;100.00;100040.84;4898583;29;20068;-72
2022/04/20 05:42:33;;;;;;;15.40;11.82;;;;;;;6.64;100.00;100046.63;4882073;29;20065;-75
2022/04/20 05:45:02;;;;;;;17.13;12.15;;;;;;;7.04;100.00;100038.47;4898271;29;20056;-75
2022/04/20 05:47:33;;;;;;;14.60;10.90;;;;;;;7.52;100.00;100049.38;4885100;29;20084;-76
2022/04/20 05:50:02;;;;;;;14.95;10.80;;;;;;;7.53;100.00;100051.06;4897902;29;20053;-73
2022/04/20 05:52:30;;;;;;;13.20;10.77;;;;;;;7.71;100.00;100050.16;4898054;29;20109;-75
2022/04/20 05:54:58;;;;;;;27.92;12.40;;;;;;;8.48;100.00;100037.19;4881144;29;20504;-75
2022/04/20 05:57:26;;;;;;;17.75;11.63;;;;;;;8.90;100.00;100038.41;4898107;29;20410;-75
2022/04/20 05:59:55;;;;;;;16.50;11.90;;;;;;;9.48;100.00;100039.53;4898172;29;20044;-76
2022/04/20 06:02:23;;;;;;;17.88;11.25;;;;;;;9.80;100.00;100040.25;4898195;29;20051;-76
2022/04/20 06:04:53;;;;;;;13.75;10.35;;;;;;;9.87;100.00;100036.28;4881236;29;20064;-75
2022/04/20 06:07:22;;;;;;;14.55;10.70;;;;;;;9.85;100.00;100032.84;4897935;29;20108;-76
2022/04/20 06:09:50;;;;;;;15.98;10.18;;;;;;;10.48;100.00;100032.50;4897687;29;20044;-74
2022/04/20 06:12:20;;;;;;;12.55;9.68;;;;;;;10.54;100.00;100037.47;4881269;29;20487;-75
2022/04/20 06:14:48;;;;;;;14.43;10.80;;;;;;;10.84;100.00;100040.84;4897924;29;20049;-73
2022/04/20 06:17:17;;;;;;;13.70;10.30;;;;;;;11.01;100.00;100031.75;4898023;29;20049;-72
2022/04/20 06:19:45;;;;;;;15.13;10.77;;;;;;;11.14;100.00;100027.28;4896355;29;20143;-73
2022/04/20 06:22:15;;;;;;;16.40;10.63;;;;;;;11.28;100.00;100031.72;4897808;29;20052;-73
2022/04/20 06:24:43;;;;;;;16.42;10.82;;;;;;;11.86;100.00;100025.13;4897644;29;20104;-73
2022/04/20 06:27:11;;;;;;;14.63;10.57;;;;;;;12.46;100.00;100016.44;4881179;29;20113;-74
2022/04/20 06:29:39;;;;;;;13.60;9.93;;;;;;;12.54;100.00;100016.72;4881145;29;20053;-70
2022/04/20 06:32:09;;;;;;;13.48;9.68;;;;;;;12.06;100.00;100020.22;4880752;29;20147;-70
2022/04/20 06:34:38;;;;;;;13.55;9.05;;;;;;;12.37;93.52;100019.78;4880755;29;20053;-70
2022/04/20 06:37:07;;;;;;;11.32;8.68;;;;;;;12.25;92.76;100021.47;4897746;29;20049;-69
2022/04/20 06:39:36;;;;;;;10.50;8.23;;;;;;;12.27;92.67;100008.88;4881194;29;20520;-72
2022/04/20 06:42:06;;;;;;;9.70;7.65;;;;;;;12.17;88.25;100007.81;4897334;29;20120;-76
2022/04/20 06:44:34;;;;;;;12.10;8.48;;;;;;;12.15;88.14;100006.19;4897958;29;20045;-70
2022/04/20 06:47:02;;;;;;;12.75;8.75;;;;;;;11.95;90.44;100000.44;4880581;29;20052;-71
2022/04/20 06:49:31;;;;;;;10.77;8.57;;;;;;;11.92;88.14;100005.16;4880717;29;20063;-72
2022/04/20 07:00:18;;;;;;;9.88;8.13;;;;;;;10.97;90.72;100005.34;4916813;29;20394;-75
2022/04/20 07:02:46;;;;;;;10.73;7.57;;;;;;;10.49;94.37;100002.22;4915158;29;20135;-70
2022/04/20 07:05:15;;;;;;;9.38;6.95;;;;;;;10.41;90.67;100001.84;4916051;29;20123;-70
2022/04/20 07:07:43;;;;;;;12.05;8.65;;;;;;;10.45;94.18;100006.03;4899216;29;20052;-70
2022/04/20 07:10:27;;;;;;;11.20;7.88;;;;;;;10.30;91.73;100003.38;4916237;29;20051;-70
2022/04/20 07:12:56;;;;;;;12.43;8.60;;;;;;;10.20;96.29;100001.34;4900264;29;20060;-72
2022/04/20 07:15:26;;;;;;;11.27;8.07;;;;;;;10.25;94.54;99999.31;4917274;29;20048;-71
2022/04/20 07:17:54;;;;;;;11.13;7.65;;;;;;;10.25;95.89;99997.50;4902613;29;20395;-72
2022/04/20 07:20:22;;;;;;;10.38;8.32;;;;;;;10.31;94.41;99998.91;4919810;29;20052;-70
2022/04/20 07:22:53;;;;;;;11.38;8.10;;;;;;;10.28;93.59;99993.78;4902667;29;20131;-70
2022/04/20 07:25:26;;;;;;;10.98;7.30;;;;;;;10.27;95.51;99998.25;4904221;29;20410;-72
2022/04/20 07:27:58;;;;;;;8.90;7.10;;;;;;;10.15;87.93;99998.13;4919567;29;20060;-70
2022/04/20 07:30:27;;;;;;;9.53;6.37;;;;;;;10.41;86.85;100002.69;4919816;29;20413;-72
2022/04/20 07:32:56;;;;;;;9.70;6.03;;;;;;;10.43;84.44;100003.47;4902516;29;20430;-71
2022/04/20 07:35:24;;;;;;;9.15;5.70;;;;;;;10.09;85.93;100006.50;4919994;29;20086;-71
2022/04/20 07:37:52;;;;;;;9.40;6.72;;;;;;;10.00;87.21;100005.25;4902770;29;20076;-72
2022/04/20 07:40:20;;;;;;;8.27;5.97;;;;;;;10.23;85.59;99999.41;4902907;29;20072;-70
2022/04/20 07:42:56;;;;;;;12.25;6.63;;;;;;;10.25;86.29;100005.50;4919784;29;20060;-71
2022/04/20 07:45:26;;;;;;;7.32;5.90;;;;;;;10.12;88.08;99999.16;4902647;29;20502;-70
2022/04/20 07:47:56;;;;;;;6.60;4.85;;;;;;;10.07;86.28;99995.94;4902239;29;20054;-72
2022/04/20 07:50:25;;;;;;;9.25;5.13;;;;;;;9.99;81.65;99988.41;4902336;29;20056;-70
2022/04/20 07:52:55;;;;;;;6.85;4.90;;;;;;;9.99;79.89;100000.88;4902455;29;20048;-71
2022/04/20 07:55:25;;;;;;;6.68;4.95;;;;;;;10.03;81.11;99997.06;4920449;29;20118;-70
2022/04/20 07:57:57;;;;;;;8.63;4.90;;;;;;;10.09;79.39;100004.69;4919400;29;20051;-70
2022/04/20 08:00:26;;;;;;;8.95;5.28;;;;;;;10.35;78.49;100002.25;4902438;29;20052;-70
2022/04/20 08:03:11;;;;;;;6.38;4.32;;;;;;;10.40;71.13;99997.47;4919229;29;20165;-72
2022/04/20 08:05:40;;;;;;;7.73;4.90;;;;;;;10.16;71.59;99994.50;4902614;29;20063;-70
2022/04/20 08:08:10;;;;;;;9.00;4.95;;;;;;;9.99;74.08;99992.88;4901751;29;20106;-72
2022/04/20 08:10:38;;;;;;;7.05;4.97;;;;;;;10.19;70.53;99983.66;4918901;29;20059;-70
2022/04/20 08:15:54;;;;;;;8.52;5.13;;;;;;;10.16;67.75;99984.72;4919279;29;20454;-75
2022/04/20 08:18:23;;;;;;;6.72;4.50;;;;;;;10.12;70.16;99972.50;4919403;29;20107;-71
2022/04/20 08:20:52;;;;;;;6.03;4.03;;;;;;;10.16;65.78;99976.72;4919176;29;20107;-70
2022/04/20 08:23:20;;;;;;;7.78;4.40;;;;;;;10.28;64.03;99977.78;4919170;29;20409;-70
2022/04/20 08:25:49;;;;;;;7.22;4.93;;;;;;;10.34;64.17;99976.53;4919559;29;20399;-70
2022/04/20 08:28:18;;;;;;;6.72;4.93;;;;;;;10.42;67.08;99971.56;4918809;29;20055;-70
2022/04/20 08:30:47;;;;;;;7.70;5.28;;;;;;;10.51;64.13;99963.81;4902271;29;20092;-70
2022/04/20 08:33:15;;;;;;;6.90;4.15;;;;;;;10.64;56.81;99961.25;4901498;29;20055;-72
2022/04/20 08:35:43;;;;;;;6.15;4.50;;;;;;;10.69;56.16;99958.25;4919189;29;20040;-70
2022/04/20 08:38:11;;;;;;;7.35;4.13;;;;;;;11.00;50.91;99970.44;4919333;29;20048;-70
2022/04/20 08:40:41;;;;;;;5.38;3.80;;;;;;;11.04;46.64;99962.13;4918535;29;20047;-71
2022/04/20 08:43:12;;;;;;;6.13;3.75;;;;;;;10.86;45.95;99966.00;4919046;29;20409;-72
2022/04/20 08:45:43;;;;;;;5.38;4.05;;;;;;;10.67;46.82;99963.69;4918647;29;20040;-72
2022/04/20 08:48:12;;;;;;;5.90;4.15;;;;;;;10.81;49.80;99961.00;4918090;29;20342;-71
2022/04/20 08:50:41;;;;;;;5.20;3.65;;;;;;;10.98;48.53;99959.00;4918439;29;20490;-70
2022/04/20 08:53:11;;;;;;;6.72;3.90;;;;;;;10.94;46.03;99960.19;4901403;29;20052;-71
2022/04/20 08:55:40;;;;;;;5.55;3.83;;;;;;;11.00;46.20;99957.09;4918450;29;20044;-71
2022/04/20 08:58:08;;;;;;;6.72;4.45;;;;;;;10.89;47.09;99956.00;4918231;29;20047;-71
2022/04/20 09:00:37;;;;;;;7.05;4.28;;;;;;;11.09;48.29;99946.66;4918234;29;20063;-70
2022/04/20 09:03:07;;;;;;;5.78;3.67;;;;;;;11.21;49.31;99941.47;4900867;29;20494;-70
2022/04/20 09:05:38;;;;;;;6.82;4.38;;;;;;;11.35;46.42;99939.56;4918789;29;20048;-71
2022/04/20 09:08:11;;;;;;;6.70;4.90;;;;;;;11.38;45.43;99941.16;4918415;29;20044;-71
2022/04/20 09:10:40;;;;;;;7.60;4.03;;;;;;;11.31;44.89;99937.22;4918395;29;20040;-70
2022/04/20 09:13:11;;;;;;;6.78;4.32;;;;;;;11.26;45.26;99940.19;4918250;29;20504;-71
2022/04/20 09:15:41;;;;;;;6.68;4.43;;;;;;;11.35;45.99;99936.88;4901781;29;20048;-71
2022/04/20 09:18:11;;;;;;;6.65;4.20;;;;;;;11.33;45.22;99936.16;4917989;29;20474;-70
2022/04/20 09:20:40;;;;;;;7.38;4.68;;;;;;;11.45;45.84;99929.94;4901431;29;20071;-73
2022/04/20 09:23:12;;;;;;;7.07;4.35;;;;;;;11.51;45.88;99936.69;4901227;29;20125;-71
2022/04/20 09:25:51;;;;;;;6.97;4.82;;;;;;;11.74;46.39;99935.09;4901174;29;20056;-73
2022/04/20 09:28:22;;;;;;;6.53;4.63;;;;;;;11.73;45.70;99934.25;4922589;29;20127;-72
2022/04/20 09:30:55;;;;;;;8.02;5.05;;;;;;;11.70;44.58;99936.28;4922218;29;20052;-71
2022/04/20 09:33:45;;;;;;;8.55;5.22;;;;;;;11.52;45.12;99924.19;4920822;29;20048;-71
2022/04/20 09:36:14;;;;;;;7.43;4.63;;;;;;;11.49;46.02;99924.44;4919480;29;20383;-70
2022/04/20 09:39:01;;;;;;;7.13;4.90;;;;;;;11.36;46.18;99930.59;4900501;29;20060;-71
2022/04/20 09:41:30;;;;;;;6.20;4.75;;;;;;;11.40;46.30;99934.78;4917818;29;20150;-71
2022/04/20 09:44:09;;;;;;;7.78;4.72;;;;;;;11.44;45.05;99914.91;4918023;29;20469;-70
2022/04/20 09:50:07;;;;;;;7.10;4.68;;;;;;;11.78;44.20;99923.25;4903085;29;20417;-71
2022/04/20 09:52:42;;;;;;;6.85;4.63;;;;;;;11.67;44.95;99917.78;4901425;29;20135;-73
2022/04/20 09:55:15;;;;;;;7.18;4.85;;;;;;;11.72;45.00;99919.19;4887406;29;20127;-72
2022/04/20 09:57:43;;;;;;;7.88;4.22;;;;;;;11.90;44.49;99913.53;4917727;29;20047;-71
2022/04/20 10:00:14;;;;;;;7.53;4.30;;;;;;;12.02;42.84;99912.66;4900564;29;20494;-71
2022/04/20 10:02:49;;;;;;;7.07;4.53;;;;;;;11.94;42.01;99905.16;4917411;29;20062;-70
2022/04/20 10:05:21;;;;;;;6.70;4.57;;;;;;;11.85;42.43;99911.16;4917301;29;20079;-71
2022/04/20 10:07:54;;;;;;;6.97;5.00;;;;;;;11.93;41.93;99910.63;4900347;29;20059;-71
2022/04/20 10:10:24;;;;;;;6.35;4.30;;;;;;;12.33;43.12;99903.25;4899983;29;20052;-71
2022/04/20 10:12:55;;;;;;;8.70;4.90;;;;;;;12.19;44.22;99914.13;4900219;29;20059;-71
2022/04/20 10:18:17;;;;;;;7.97;4.80;;;;;;;12.35;44.30;99909.34;4916437;29;20079;-70
2022/04/20 10:20:52;;;;;;;6.05;4.35;;;;;;;12.57;42.15;99906.84;4916682;29;20449;-71
2022/04/20 10:23:22;;;;;;;7.22;4.65;;;;;;;12.79;42.14;99902.56;4899380;29;20056;-70
2022/04/20 10:25:52;;;;;;;7.47;4.65;;;;;;;12.85;41.45;99907.47;4916626;29;20049;-72
2022/04/20 10:28:30;;;;;;;6.38;4.47;;;;;;;12.94;42.19;99904.09;4916089;29;20103;-71
2022/04/20 10:31:15;;;;;;;6.50;4.05;;;;;;;12.72;40.51;99906.66;4916849;29;20044;-71
2022/04/20 10:33:47;;;;;;;6.63;4.00;;;;;;;12.94;39.49;99898.75;4899832;29;20135;-71
2022/04/20 10:36:29;;;;;;;6.22;3.85;;;;;;;13.20;40.34;99898.59;4916597;29;20056;-72
2022/04/20 10:39:19;;;;;;;8.90;4.55;;;;;;;13.20;38.23;99895.91;4916776;29;20056;-70
2022/04/20 10:42:27;;;;;;;5.97;4.25;;;;;;;12.67;39.44;99892.78;4900372;29;20058;-70
2022/04/20 10:45:03;;;;;;;7.22;4.32;;;;;;;12.75;39.06;99893.91;4899532;29;20131;-70
2022/04/20 10:47:35;;;;;;;6.30;4.60;;;;;;;12.61;38.92;99894.06;4917731;29;20446;-71
2022/04/20 10:50:20;;;;;;;6.15;3.75;;;;;;;12.71;39.80;99889.75;4901246;29;20052;-71
2022/04/20 10:52:52;;;;;;;5.35;3.72;;;;;;;12.65;39.65;99889.38;4920468;29;20051;-71
2022/04/20 10:55:25;;;;;;;;;;;;;;;12.46;39.16;99892.53;4920692;29;20046;-71
2022/04/20 10:57:56;;;;;;;6.90;3.60;;;;;;;12.53;38.95;99889.28;4919262;29;19945;-71
2022/04/20 11:00:27;;;;;;;6.53;3.90;;;;;;;12.56;37.88;99893.56;4920501;29;20051;-70
2022/04/20 11:02:56;;;;;;;6.13;3.75;;;;;;;12.35;38.02;99881.75;4920655;29;20047;-71
2022/04/20 11:05:26;;;;;;;5.50;3.70;;;;;;;12.48;38.99;99886.09;4920140;29;20485;-71
2022/04/20 11:08:06;;;;;;;5.80;4.03;;;;;;;12.64;38.97;99880.44;4919861;29;20096;-70
2022/04/20 11:10:41;;;;;;;5.97;3.70;;;;;;;12.77;37.34;99878.59;4920293;29;20047;-70
2022/04/20 11:19:04;;;;;;;6.90;3.70;;;;;;;13.07;38.17;99879.91;4903152;29;20084;-70
2022/04/20 11:21:32;;;;;;;7.47;4.00;;;;;;;13.07;38.00;99874.56;4920221;29;20051;-71
2022/04/20 11:24:06;;;;;;;5.97;3.72;;;;;;;13.11;37.69;99862.63;4919860;29;20367;-71
2022/04/20 11:26:39;;;;;;;6.28;3.85;;;;;;;13.17;36.92;99868.38;4902919;29;20048;-71
2022/04/20 11:29:12;;;;;;;5.18;3.67;;;;;;;13.20;38.28;99864.63;4920461;29;20474;-70
2022/04/20 11:31:42;;;;;;;;;;;;;;;13.15;37.30;99862.28;4920697;29;20493;-70
2022/04/20 11:34:14;;;;;;;5.55;3.75;;;;;;;13.17;37.07;99862.16;4920000;29;19930;-71
2022/04/20 11:36:45;;;;;;;6.50;3.92;;;;;;;13.45;36.02;99864.44;4903141;29;20076;-71
2022/04/20 11:39:16;;;;;;;6.63;4.47;;;;;;;13.79;35.63;99867.13;4902734;29;20512;-72
2022/04/20 11:41:45;;;;;;;7.15;4.28;;;;;;;14.05;35.50;99859.69;4903151;29;20056;-71
2022/04/20 11:44:21;;;;;;;7.07;4.15;;;;;;;14.06;35.17;99858.72;4902631;29;20055;-72
2022/04/20 11:46:50;;;;;;;7.05;4.55;;;;;;;14.13;35.73;99849.19;4902760;29;20413;-70
2022/04/20 11:49:19;;;;;;;6.13;4.40;;;;;;;14.20;35.17;99854.94;4902498;29;20056;-71
2022/04/20 11:51:53;;;;;;;7.63;4.57;;;;;;;13.95;34.30;99856.03;4919605;29;20446;-71
2022/04/20 11:54:23;;;;;;;7.43;5.43;;;;;;;14.02;33.45;99854.59;4902547;29;20052;-71
2022/04/20 11:56:51;;;;;;;5.97;4.43;;;;;;;14.13;34.35;99843.84;4902709;29;20052;-71
2022/04/20 11:59:21;;;;;;;8.73;5.10;;;;;;;14.37;34.04;99842.78;4901994;29;20055;-70
2022/04/20 12:01:49;;;;;;;6.20;4.63;;;;;;;14.48;33.32;99824.03;4901648;29;20056;-70
2022/04/20 12:04:19;;;;;;;6.32;4.50;;;;;;;14.40;33.41;99834.50;4901744;29;20425;-70
2022/04/20 12:06:52;;;;;;;7.45;4.45;;;;;;;14.40;33.56;99837.19;4902088;29;20053;-71
2022/04/20 12:09:26;;;;;;;7.20;4.50;;;;;;;14.28;32.98;99839.03;4902138;29;20049;-71
2022/04/20 12:11:59;;;;;;;6.95;4.45;;;;;;;14.01;32.37;99847.53;4902457;29;20080;-72